sensor_id;sensor_type;location;lat;lon;timestamp;P1;durP1;ratioP1;P2;durP2;ratioP2
9392;SDS011;4736;52.508;13.422;2022-08-03T00:02:33;4.30;;;4.10;;
9392;SDS011;4736;52.508;13.422;2022-08-03T00:05:37;4.20;;;4.00;;
9392;SDS011;4736;52.508;13.422;2022-08-03T00:09:00;4.60;;;4.27;;
9392;SDS011;4736;52.508;13.422;2022-08-03T00:12:03;4.33;;;3.97;;
9392;SDS011;4736;52.508;13.422;2022-08-03T00:15:07;4.70;;;4.30;;
9392;SDS011;4736;52.508;13.422;2022-08-03T00:18:15;5.20;;;4.50;;
9392;SDS011;4736;52.508;13.422;2022-08-03T00:21:19;5.37;;;4.77;;
9392;SDS011;4736;52.508;13.422;2022-08-03T00:24:22;5.33;;;5.03;;
9392;SDS011;4736;52.508;13.422;2022-08-03T00:27:25;5.10;;;4.70;;
9392;SDS011;4736;52.508;13.422;2022-08-03T00:30:33;4.43;;;4.23;;
9392;SDS011;4736;52.508;13.422;2022-08-03T00:33:36;4.77;;;4.37;;
9392;SDS011;4736;52.508;13.422;2022-08-03T00:37:00;4.90;;;4.60;;
9392;SDS011;4736;52.508;13.422;2022-08-03T00:40:04;4.60;;;4.40;;
9392;SDS011;4736;52.508;13.422;2022-08-03T00:43:07;4.20;;;4.10;;
9392;SDS011;4736;52.508;13.422;2022-08-03T00:46:10;4.67;;;4.43;;
9392;SDS011;4736;52.508;13.422;2022-08-03T00:49:20;4.90;;;4.50;;
9392;SDS011;4736;52.508;13.422;2022-08-03T00:52:25;4.53;;;4.37;;
9392;SDS011;4736;52.508;13.422;2022-08-03T00:55:28;4.87;;;4.60;;
9392;SDS011;4736;52.508;13.422;2022-08-03T00:58:32;4.23;;;4.03;;
9392;SDS011;4736;52.508;13.422;2022-08-03T01:01:35;4.73;;;4.53;;
9392;SDS011;4736;52.508;13.422;2022-08-03T01:04:38;5.07;;;4.80;;
9392;SDS011;4736;52.508;13.422;2022-08-03T01:07:48;4.90;;;4.70;;
9392;SDS011;4736;52.508;13.422;2022-08-03T01:11:02;4.60;;;4.37;;
9392;SDS011;4736;52.508;13.422;2022-08-03T01:14:12;4.40;;;4.20;;
9392;SDS011;4736;52.508;13.422;2022-08-03T01:17:28;4.83;;;4.57;;
9392;SDS011;4736;52.508;13.422;2022-08-03T01:20:37;5.17;;;4.70;;
9392;SDS011;4736;52.508;13.422;2022-08-03T01:23:55;4.90;;;4.60;;
9392;SDS011;4736;52.508;13.422;2022-08-03T01:27:08;4.30;;;4.10;;
9392;SDS011;4736;52.508;13.422;2022-08-03T01:30:17;4.27;;;4.07;;
9392;SDS011;4736;52.508;13.422;2022-08-03T01:33:21;4.60;;;4.30;;
9392;SDS011;4736;52.508;13.422;2022-08-03T01:36:28;4.73;;;4.43;;
9392;SDS011;4736;52.508;13.422;2022-08-03T01:39:35;4.50;;;4.20;;
9392;SDS011;4736;52.508;13.422;2022-08-03T01:42:40;4.67;;;4.47;;
9392;SDS011;4736;52.508;13.422;2022-08-03T01:45:46;4.67;;;4.50;;
9392;SDS011;4736;52.508;13.422;2022-08-03T01:48:50;5.13;;;4.73;;
9392;SDS011;4736;52.508;13.422;2022-08-03T01:51:54;4.83;;;4.53;;
9392;SDS011;4736;52.508;13.422;2022-08-03T01:55:05;5.00;;;4.70;;
9392;SDS011;4736;52.508;13.422;2022-08-03T01:58:09;4.70;;;4.50;;
9392;SDS011;4736;52.508;13.422;2022-08-03T02:01:16;5.10;;;4.70;;
9392;SDS011;4736;52.508;13.422;2022-08-03T02:04:20;4.90;;;4.70;;
9392;SDS011;4736;52.508;13.422;2022-08-03T02:07:25;4.90;;;4.80;;
9392;SDS011;4736;52.508;13.422;2022-08-03T02:10:30;4.83;;;4.63;;
9392;SDS011;4736;52.508;13.422;2022-08-03T02:13:36;4.70;;;4.50;;
9392;SDS011;4736;52.508;13.422;2022-08-03T02:16:41;4.60;;;4.40;;
9392;SDS011;4736;52.508;13.422;2022-08-03T02:19:45;4.33;;;4.10;;
9392;SDS011;4736;52.508;13.422;2022-08-03T02:22:49;4.33;;;4.17;;
9392;SDS011;4736;52.508;13.422;2022-08-03T02:25:55;4.33;;;4.13;;
9392;SDS011;4736;52.508;13.422;2022-08-03T02:29:03;4.33;;;4.17;;
9392;SDS011;4736;52.508;13.422;2022-08-03T02:32:15;3.90;;;3.70;;
9392;SDS011;4736;52.508;13.422;2022-08-03T02:35:21;4.27;;;4.10;;
9392;SDS011;4736;52.508;13.422;2022-08-03T02:38:27;5.00;;;4.70;;
9392;SDS011;4736;52.508;13.422;2022-08-03T02:41:34;4.30;;;4.17;;
9392;SDS011;4736;52.508;13.422;2022-08-03T02:44:43;4.53;;;4.33;;
9392;SDS011;4736;52.508;13.422;2022-08-03T02:47:50;5.53;;;4.60;;
9392;SDS011;4736;52.508;13.422;2022-08-03T02:50:57;4.50;;;4.10;;
9392;SDS011;4736;52.508;13.422;2022-08-03T02:54:02;4.50;;;4.30;;
9392;SDS011;4736;52.508;13.422;2022-08-03T02:57:06;4.70;;;4.40;;
9392;SDS011;4736;52.508;13.422;2022-08-03T03:00:11;4.33;;;4.23;;
9392;SDS011;4736;52.508;13.422;2022-08-03T03:03:30;4.60;;;4.40;;
9392;SDS011;4736;52.508;13.422;2022-08-03T03:06:45;4.10;;;4.00;;
9392;SDS011;4736;52.508;13.422;2022-08-03T03:09:49;3.40;;;3.30;;
9392;SDS011;4736;52.508;13.422;2022-08-03T03:12:55;4.13;;;4.00;;
9392;SDS011;4736;52.508;13.422;2022-08-03T03:16:00;4.00;;;3.90;;
9392;SDS011;4736;52.508;13.422;2022-08-03T03:19:06;4.30;;;4.10;;
9392;SDS011;4736;52.508;13.422;2022-08-03T03:22:12;4.90;;;4.53;;
9392;SDS011;4736;52.508;13.422;2022-08-03T03:25:17;4.47;;;4.27;;
9392;SDS011;4736;52.508;13.422;2022-08-03T03:28:21;4.20;;;4.10;;
9392;SDS011;4736;52.508;13.422;2022-08-03T03:31:25;3.83;;;3.63;;
9392;SDS011;4736;52.508;13.422;2022-08-03T03:34:29;4.30;;;4.13;;
9392;SDS011;4736;52.508;13.422;2022-08-03T03:37:33;4.00;;;3.90;;
9392;SDS011;4736;52.508;13.422;2022-08-03T03:40:36;4.23;;;4.00;;
9392;SDS011;4736;52.508;13.422;2022-08-03T03:43:39;3.97;;;3.87;;
9392;SDS011;4736;52.508;13.422;2022-08-03T03:46:43;4.13;;;3.93;;
9392;SDS011;4736;52.508;13.422;2022-08-03T03:49:47;4.57;;;4.27;;
9392;SDS011;4736;52.508;13.422;2022-08-03T03:52:52;4.27;;;4.13;;
9392;SDS011;4736;52.508;13.422;2022-08-03T03:55:55;4.60;;;4.40;;
9392;SDS011;4736;52.508;13.422;2022-08-03T03:59:03;4.10;;;3.93;;
9392;SDS011;4736;52.508;13.422;2022-08-03T04:02:06;4.60;;;4.30;;
9392;SDS011;4736;52.508;13.422;2022-08-03T04:05:11;4.40;;;4.00;;
9392;SDS011;4736;52.508;13.422;2022-08-03T04:08:31;4.40;;;4.30;;
9392;SDS011;4736;52.508;13.422;2022-08-03T04:11:52;4.43;;;4.20;;
9392;SDS011;4736;52.508;13.422;2022-08-03T04:14:59;4.43;;;4.20;;
9392;SDS011;4736;52.508;13.422;2022-08-03T04:18:04;4.53;;;4.40;;
9392;SDS011;4736;52.508;13.422;2022-08-03T04:21:12;4.63;;;4.47;;
9392;SDS011;4736;52.508;13.422;2022-08-03T04:24:18;4.70;;;4.60;;
9392;SDS011;4736;52.508;13.422;2022-08-03T04:27:27;4.20;;;4.10;;
9392;SDS011;4736;52.508;13.422;2022-08-03T04:30:35;4.70;;;4.50;;
9392;SDS011;4736;52.508;13.422;2022-08-03T04:33:39;4.80;;;4.60;;
9392;SDS011;4736;52.508;13.422;2022-08-03T04:36:46;4.57;;;4.37;;
9392;SDS011;4736;52.508;13.422;2022-08-03T04:39:51;4.40;;;4.13;;
9392;SDS011;4736;52.508;13.422;2022-08-03T04:42:58;6.70;;;5.07;;
9392;SDS011;4736;52.508;13.422;2022-08-03T04:46:01;5.33;;;5.13;;
9392;SDS011;4736;52.508;13.422;2022-08-03T04:49:05;4.93;;;4.73;;
9392;SDS011;4736;52.508;13.422;2022-08-03T04:52:12;5.67;;;5.17;;
9392;SDS011;4736;52.508;13.422;2022-08-03T04:55:23;5.80;;;5.50;;
9392;SDS011;4736;52.508;13.422;2022-08-03T04:58:27;6.70;;;6.20;;
9392;SDS011;4736;52.508;13.422;2022-08-03T05:01:30;5.10;;;4.77;;
9392;SDS011;4736;52.508;13.422;2022-08-03T05:04:33;4.83;;;4.53;;
9392;SDS011;4736;52.508;13.422;2022-08-03T05:07:37;5.63;;;5.13;;
9392;SDS011;4736;52.508;13.422;2022-08-03T05:10:40;5.27;;;4.97;;
9392;SDS011;4736;52.508;13.422;2022-08-03T05:13:43;5.83;;;5.37;;
9392;SDS011;4736;52.508;13.422;2022-08-03T05:16:46;5.57;;;5.27;;
9392;SDS011;4736;52.508;13.422;2022-08-03T05:19:51;5.40;;;5.10;;
9392;SDS011;4736;52.508;13.422;2022-08-03T05:22:55;6.40;;;5.87;;
9392;SDS011;4736;52.508;13.422;2022-08-03T05:25:59;6.23;;;5.70;;
9392;SDS011;4736;52.508;13.422;2022-08-03T05:29:02;6.23;;;5.83;;
9392;SDS011;4736;52.508;13.422;2022-08-03T05:32:05;5.70;;;5.23;;
9392;SDS011;4736;52.508;13.422;2022-08-03T05:35:08;5.97;;;5.47;;
9392;SDS011;4736;52.508;13.422;2022-08-03T05:38:33;5.33;;;4.90;;
9392;SDS011;4736;52.508;13.422;2022-08-03T05:41:36;6.13;;;5.47;;
9392;SDS011;4736;52.508;13.422;2022-08-03T05:44:39;5.47;;;5.07;;
9392;SDS011;4736;52.508;13.422;2022-08-03T05:47:42;7.77;;;4.90;;
9392;SDS011;4736;52.508;13.422;2022-08-03T05:50:45;5.17;;;4.77;;
9392;SDS011;4736;52.508;13.422;2022-08-03T05:53:49;4.80;;;4.60;;
9392;SDS011;4736;52.508;13.422;2022-08-03T05:56:52;6.30;;;4.43;;
9392;SDS011;4736;52.508;13.422;2022-08-03T05:59:55;6.47;;;5.20;;
9392;SDS011;4736;52.508;13.422;2022-08-03T06:02:59;5.60;;;5.23;;
9392;SDS011;4736;52.508;13.422;2022-08-03T06:06:02;5.07;;;4.63;;
9392;SDS011;4736;52.508;13.422;2022-08-03T06:09:06;6.70;;;4.60;;
9392;SDS011;4736;52.508;13.422;2022-08-03T06:12:10;12.00;;;5.17;;
9392;SDS011;4736;52.508;13.422;2022-08-03T06:15:14;5.50;;;5.00;;
9392;SDS011;4736;52.508;13.422;2022-08-03T06:18:18;8.27;;;5.13;;
9392;SDS011;4736;52.508;13.422;2022-08-03T06:21:21;8.73;;;5.30;;
9392;SDS011;4736;52.508;13.422;2022-08-03T06:24:28;5.00;;;4.57;;
9392;SDS011;4736;52.508;13.422;2022-08-03T06:27:31;5.13;;;4.70;;
9392;SDS011;4736;52.508;13.422;2022-08-03T06:30:37;5.87;;;5.27;;
9392;SDS011;4736;52.508;13.422;2022-08-03T06:33:40;4.80;;;4.40;;
9392;SDS011;4736;52.508;13.422;2022-08-03T06:37:03;4.23;;;4.00;;
9392;SDS011;4736;52.508;13.422;2022-08-03T06:40:08;7.63;;;4.23;;
9392;SDS011;4736;52.508;13.422;2022-08-03T06:43:14;5.33;;;4.03;;
9392;SDS011;4736;52.508;13.422;2022-08-03T06:46:17;3.83;;;3.50;;
9392;SDS011;4736;52.508;13.422;2022-08-03T06:49:20;6.77;;;3.47;;
9392;SDS011;4736;52.508;13.422;2022-08-03T06:52:23;3.77;;;3.47;;
9392;SDS011;4736;52.508;13.422;2022-08-03T06:55:40;7.50;;;3.10;;
9392;SDS011;4736;52.508;13.422;2022-08-03T06:58:42;4.03;;;3.73;;
9392;SDS011;4736;52.508;13.422;2022-08-03T07:01:47;4.97;;;3.30;;
9392;SDS011;4736;52.508;13.422;2022-08-03T07:04:50;5.83;;;3.40;;
9392;SDS011;4736;52.508;13.422;2022-08-03T07:07:53;3.33;;;3.17;;
9392;SDS011;4736;52.508;13.422;2022-08-03T07:10:58;3.60;;;3.40;;
9392;SDS011;4736;52.508;13.422;2022-08-03T07:14:03;7.28;;;3.30;;
9392;SDS011;4736;52.508;13.422;2022-08-03T07:17:05;3.30;;;3.10;;
9392;SDS011;4736;52.508;13.422;2022-08-03T07:20:12;3.87;;;3.27;;
9392;SDS011;4736;52.508;13.422;2022-08-03T07:23:15;3.38;;;3.17;;
9392;SDS011;4736;52.508;13.422;2022-08-03T07:26:21;3.42;;;3.10;;
9392;SDS011;4736;52.508;13.422;2022-08-03T07:29:23;3.47;;;3.17;;
9392;SDS011;4736;52.508;13.422;2022-08-03T07:32:26;4.07;;;3.07;;
9392;SDS011;4736;52.508;13.422;2022-08-03T07:35:31;4.13;;;3.43;;
9392;SDS011;4736;52.508;13.422;2022-08-03T07:38:35;5.30;;;3.57;;
9392;SDS011;4736;52.508;13.422;2022-08-03T07:41:39;3.30;;;3.10;;
9392;SDS011;4736;52.508;13.422;2022-08-03T07:44:42;7.07;;;3.13;;
9392;SDS011;4736;52.508;13.422;2022-08-03T07:47:45;5.10;;;3.20;;
9392;SDS011;4736;52.508;13.422;2022-08-03T07:50:54;5.57;;;3.03;;
9392;SDS011;4736;52.508;13.422;2022-08-03T07:53:57;3.57;;;3.13;;
9392;SDS011;4736;52.508;13.422;2022-08-03T07:57:02;3.10;;;2.90;;
9392;SDS011;4736;52.508;13.422;2022-08-03T08:00:06;3.20;;;3.00;;
9392;SDS011;4736;52.508;13.422;2022-08-03T08:03:13;3.20;;;3.10;;
9392;SDS011;4736;52.508;13.422;2022-08-03T08:06:16;3.27;;;2.93;;
9392;SDS011;4736;52.508;13.422;2022-08-03T08:09:20;4.03;;;3.10;;
9392;SDS011;4736;52.508;13.422;2022-08-03T08:12:24;4.07;;;3.20;;
9392;SDS011;4736;52.508;13.422;2022-08-03T08:15:28;5.93;;;3.10;;
9392;SDS011;4736;52.508;13.422;2022-08-03T08:18:31;3.90;;;3.43;;
9392;SDS011;4736;52.508;13.422;2022-08-03T08:21:34;4.17;;;3.07;;
9392;SDS011;4736;52.508;13.422;2022-08-03T08:24:57;3.80;;;3.10;;
9392;SDS011;4736;52.508;13.422;2022-08-03T08:28:03;5.30;;;3.30;;
9392;SDS011;4736;52.508;13.422;2022-08-03T08:31:26;3.60;;;3.30;;
9392;SDS011;4736;52.508;13.422;2022-08-03T08:34:29;3.00;;;2.90;;
9392;SDS011;4736;52.508;13.422;2022-08-03T08:37:32;3.40;;;3.07;;
9392;SDS011;4736;52.508;13.422;2022-08-03T08:40:35;4.47;;;3.37;;
9392;SDS011;4736;52.508;13.422;2022-08-03T08:43:40;2.87;;;2.67;;
9392;SDS011;4736;52.508;13.422;2022-08-03T08:46:43;2.90;;;2.70;;
9392;SDS011;4736;52.508;13.422;2022-08-03T08:49:48;3.03;;;2.83;;
9392;SDS011;4736;52.508;13.422;2022-08-03T08:53:10;4.20;;;2.80;;
9392;SDS011;4736;52.508;13.422;2022-08-03T08:56:19;2.60;;;2.60;;
9392;SDS011;4736;52.508;13.422;2022-08-03T08:59:26;4.10;;;3.00;;
9392;SDS011;4736;52.508;13.422;2022-08-03T09:02:48;3.13;;;3.03;;
9392;SDS011;4736;52.508;13.422;2022-08-03T09:05:51;3.13;;;2.83;;
9392;SDS011;4736;52.508;13.422;2022-08-03T09:08:56;5.15;;;3.03;;
9392;SDS011;4736;52.508;13.422;2022-08-03T09:11:59;2.65;;;2.63;;
9392;SDS011;4736;52.508;13.422;2022-08-03T09:15:24;2.77;;;2.77;;
9392;SDS011;4736;52.508;13.422;2022-08-03T09:18:28;2.80;;;2.50;;
9392;SDS011;4736;52.508;13.422;2022-08-03T09:21:33;2.67;;;2.58;;
9392;SDS011;4736;52.508;13.422;2022-08-03T09:24:36;3.25;;;2.90;;
9392;SDS011;4736;52.508;13.422;2022-08-03T09:27:42;3.65;;;2.47;;
9392;SDS011;4736;52.508;13.422;2022-08-03T09:30:57;2.75;;;2.70;;
9392;SDS011;4736;52.508;13.422;2022-08-03T09:34:01;2.78;;;2.67;;
9392;SDS011;4736;52.508;13.422;2022-08-03T09:37:07;2.83;;;2.72;;
9392;SDS011;4736;52.508;13.422;2022-08-03T09:40:19;2.80;;;2.65;;
9392;SDS011;4736;52.508;13.422;2022-08-03T09:43:42;3.20;;;2.92;;
9392;SDS011;4736;52.508;13.422;2022-08-03T09:46:49;2.25;;;2.25;;
9392;SDS011;4736;52.508;13.422;2022-08-03T09:49:56;3.00;;;2.90;;
9392;SDS011;4736;52.508;13.422;2022-08-03T09:53:02;2.67;;;2.47;;
9392;SDS011;4736;52.508;13.422;2022-08-03T09:56:05;3.13;;;2.85;;
9392;SDS011;4736;52.508;13.422;2022-08-03T09:59:28;2.72;;;2.40;;
9392;SDS011;4736;52.508;13.422;2022-08-03T10:02:34;2.88;;;2.60;;
9392;SDS011;4736;52.508;13.422;2022-08-03T10:05:38;2.38;;;2.30;;
9392;SDS011;4736;52.508;13.422;2022-08-03T10:08:44;2.63;;;2.55;;
9392;SDS011;4736;52.508;13.422;2022-08-03T10:11:47;2.42;;;2.33;;
9392;SDS011;4736;52.508;13.422;2022-08-03T10:14:50;2.78;;;2.70;;
9392;SDS011;4736;52.508;13.422;2022-08-03T10:17:55;2.53;;;2.42;;
9392;SDS011;4736;52.508;13.422;2022-08-03T10:20:58;2.40;;;2.20;;
9392;SDS011;4736;52.508;13.422;2022-08-03T10:24:07;2.20;;;2.05;;
9392;SDS011;4736;52.508;13.422;2022-08-03T10:27:11;3.22;;;2.70;;
9392;SDS011;4736;52.508;13.422;2022-08-03T10:30:16;5.82;;;2.70;;
9392;SDS011;4736;52.508;13.422;2022-08-03T10:33:27;2.95;;;2.67;;
9392;SDS011;4736;52.508;13.422;2022-08-03T10:36:55;2.58;;;2.47;;
9392;SDS011;4736;52.508;13.422;2022-08-03T10:40:00;2.47;;;2.25;;
9392;SDS011;4736;52.508;13.422;2022-08-03T10:43:06;2.42;;;2.22;;
9392;SDS011;4736;52.508;13.422;2022-08-03T10:46:11;2.95;;;2.72;;
9392;SDS011;4736;52.508;13.422;2022-08-03T10:49:18;3.15;;;2.70;;
9392;SDS011;4736;52.508;13.422;2022-08-03T10:52:35;3.33;;;2.90;;
9392;SDS011;4736;52.508;13.422;2022-08-03T10:55:55;2.30;;;2.20;;
9392;SDS011;4736;52.508;13.422;2022-08-03T11:03:05;2.70;;;2.67;;
9392;SDS011;4736;52.508;13.422;2022-08-03T11:06:15;2.25;;;2.15;;
9392;SDS011;4736;52.508;13.422;2022-08-03T11:09:20;6.28;;;2.85;;
9392;SDS011;4736;52.508;13.422;2022-08-03T11:12:23;2.60;;;2.50;;
9392;SDS011;4736;52.508;13.422;2022-08-03T11:15:32;2.70;;;2.60;;
9392;SDS011;4736;52.508;13.422;2022-08-03T11:18:36;2.58;;;2.47;;
9392;SDS011;4736;52.508;13.422;2022-08-03T11:21:58;2.60;;;2.40;;
9392;SDS011;4736;52.508;13.422;2022-08-03T11:25:02;3.53;;;2.65;;
9392;SDS011;4736;52.508;13.422;2022-08-03T11:31:42;2.60;;;2.40;;
9392;SDS011;4736;52.508;13.422;2022-08-03T11:35:05;3.42;;;2.25;;
9392;SDS011;4736;52.508;13.422;2022-08-03T11:38:11;2.72;;;2.63;;
9392;SDS011;4736;52.508;13.422;2022-08-03T11:44:45;2.40;;;2.25;;
9392;SDS011;4736;52.508;13.422;2022-08-03T11:47:49;6.32;;;2.58;;
9392;SDS011;4736;52.508;13.422;2022-08-03T11:50:55;3.03;;;2.83;;
9392;SDS011;4736;52.508;13.422;2022-08-03T11:54:00;2.20;;;2.20;;
9392;SDS011;4736;52.508;13.422;2022-08-03T11:57:07;2.72;;;2.55;;
9392;SDS011;4736;52.508;13.422;2022-08-03T12:00:23;2.70;;;2.50;;
9392;SDS011;4736;52.508;13.422;2022-08-03T12:03:31;2.60;;;2.50;;
9392;SDS011;4736;52.508;13.422;2022-08-03T12:06:35;2.20;;;2.20;;
9392;SDS011;4736;52.508;13.422;2022-08-03T12:10:07;2.00;;;1.90;;
9392;SDS011;4736;52.508;13.422;2022-08-03T12:13:11;3.90;;;2.30;;
9392;SDS011;4736;52.508;13.422;2022-08-03T12:16:34;2.20;;;2.20;;
9392;SDS011;4736;52.508;13.422;2022-08-03T12:19:43;3.28;;;2.50;;
9392;SDS011;4736;52.508;13.422;2022-08-03T12:22:46;2.97;;;2.80;;
9392;SDS011;4736;52.508;13.422;2022-08-03T12:25:50;2.70;;;2.60;;
9392;SDS011;4736;52.508;13.422;2022-08-03T12:28:55;4.18;;;2.50;;
9392;SDS011;4736;52.508;13.422;2022-08-03T12:31:58;2.85;;;2.70;;
9392;SDS011;4736;52.508;13.422;2022-08-03T12:35:01;2.85;;;2.72;;
9392;SDS011;4736;52.508;13.422;2022-08-03T12:38:06;2.65;;;2.60;;
9392;SDS011;4736;52.508;13.422;2022-08-03T12:41:10;3.70;;;2.50;;
9392;SDS011;4736;52.508;13.422;2022-08-03T12:44:16;2.83;;;2.55;;
9392;SDS011;4736;52.508;13.422;2022-08-03T12:47:19;2.08;;;2.08;;
9392;SDS011;4736;52.508;13.422;2022-08-03T12:50:22;2.30;;;2.20;;
9392;SDS011;4736;52.508;13.422;2022-08-03T12:53:27;2.13;;;2.10;;
9392;SDS011;4736;52.508;13.422;2022-08-03T12:56:32;2.22;;;2.13;;
9392;SDS011;4736;52.508;13.422;2022-08-03T12:59:36;2.05;;;2.00;;
9392;SDS011;4736;52.508;13.422;2022-08-03T13:02:57;2.60;;;2.30;;
9392;SDS011;4736;52.508;13.422;2022-08-03T13:06:24;2.53;;;2.33;;
9392;SDS011;4736;52.508;13.422;2022-08-03T13:09:27;2.20;;;2.10;;
9392;SDS011;4736;52.508;13.422;2022-08-03T13:12:44;2.75;;;2.53;;
9392;SDS011;4736;52.508;13.422;2022-08-03T13:15:48;3.40;;;2.30;;
9392;SDS011;4736;52.508;13.422;2022-08-03T13:18:52;2.20;;;2.08;;
9392;SDS011;4736;52.508;13.422;2022-08-03T13:21:56;1.92;;;1.90;;
9392;SDS011;4736;52.508;13.422;2022-08-03T13:25:05;5.57;;;2.00;;
9392;SDS011;4736;52.508;13.422;2022-08-03T13:28:10;2.00;;;1.90;;
9392;SDS011;4736;52.508;13.422;2022-08-03T13:31:15;2.25;;;2.20;;
9392;SDS011;4736;52.508;13.422;2022-08-03T13:34:17;2.38;;;2.22;;
9392;SDS011;4736;52.508;13.422;2022-08-03T13:37:24;4.05;;;2.20;;
9392;SDS011;4736;52.508;13.422;2022-08-03T13:40:28;2.17;;;2.08;;
9392;SDS011;4736;52.508;13.422;2022-08-03T13:43:43;2.15;;;2.15;;
9392;SDS011;4736;52.508;13.422;2022-08-03T13:46:46;2.63;;;2.50;;
9392;SDS011;4736;52.508;13.422;2022-08-03T13:49:49;2.10;;;2.05;;
9392;SDS011;4736;52.508;13.422;2022-08-03T13:53:00;2.20;;;2.20;;
9392;SDS011;4736;52.508;13.422;2022-08-03T13:56:03;1.67;;;1.67;;
9392;SDS011;4736;52.508;13.422;2022-08-03T13:59:07;2.33;;;2.22;;
9392;SDS011;4736;52.508;13.422;2022-08-03T14:02:11;2.00;;;1.95;;
9392;SDS011;4736;52.508;13.422;2022-08-03T14:05:14;2.33;;;2.22;;
9392;SDS011;4736;52.508;13.422;2022-08-03T14:08:17;2.75;;;1.98;;
9392;SDS011;4736;52.508;13.422;2022-08-03T14:11:19;2.45;;;2.30;;
9392;SDS011;4736;52.508;13.422;2022-08-03T14:14:24;2.40;;;2.20;;
9392;SDS011;4736;52.508;13.422;2022-08-03T14:17:27;2.15;;;2.15;;
9392;SDS011;4736;52.508;13.422;2022-08-03T14:20:49;3.00;;;2.00;;
9392;SDS011;4736;52.508;13.422;2022-08-03T14:23:57;2.40;;;2.17;;
9392;SDS011;4736;52.508;13.422;2022-08-03T14:27:00;2.38;;;2.05;;
9392;SDS011;4736;52.508;13.422;2022-08-03T14:30:11;2.15;;;2.05;;
9392;SDS011;4736;52.508;13.422;2022-08-03T14:33:15;2.22;;;2.03;;
9392;SDS011;4736;52.508;13.422;2022-08-03T14:36:18;2.85;;;2.50;;
9392;SDS011;4736;52.508;13.422;2022-08-03T14:39:20;2.05;;;1.95;;
9392;SDS011;4736;52.508;13.422;2022-08-03T14:42:23;3.25;;;1.90;;
9392;SDS011;4736;52.508;13.422;2022-08-03T14:45:28;2.33;;;2.13;;
9392;SDS011;4736;52.508;13.422;2022-08-03T14:48:31;2.40;;;2.20;;
9392;SDS011;4736;52.508;13.422;2022-08-03T14:51:53;2.00;;;2.00;;
9392;SDS011;4736;52.508;13.422;2022-08-03T14:54:56;2.88;;;1.90;;
9392;SDS011;4736;52.508;13.422;2022-08-03T14:58:00;2.10;;;2.00;;
9392;SDS011;4736;52.508;13.422;2022-08-03T15:01:21;2.22;;;2.13;;
9392;SDS011;4736;52.508;13.422;2022-08-03T15:04:44;2.40;;;2.30;;
9392;SDS011;4736;52.508;13.422;2022-08-03T15:07:47;2.22;;;2.13;;
9392;SDS011;4736;52.508;13.422;2022-08-03T15:10:50;4.97;;;2.38;;
9392;SDS011;4736;52.508;13.422;2022-08-03T15:13:53;2.50;;;2.40;;
9392;SDS011;4736;52.508;13.422;2022-08-03T15:16:57;2.72;;;2.50;;
9392;SDS011;4736;52.508;13.422;2022-08-03T15:20:00;2.63;;;1.80;;
9392;SDS011;4736;52.508;13.422;2022-08-03T15:23:23;2.35;;;2.25;;
9392;SDS011;4736;52.508;13.422;2022-08-03T15:26:26;2.33;;;2.20;;
9392;SDS011;4736;52.508;13.422;2022-08-03T15:29:39;2.10;;;2.00;;
9392;SDS011;4736;52.508;13.422;2022-08-03T15:33:04;2.20;;;2.20;;
9392;SDS011;4736;52.508;13.422;2022-08-03T15:36:07;4.72;;;2.28;;
9392;SDS011;4736;52.508;13.422;2022-08-03T15:39:10;2.20;;;2.10;;
9392;SDS011;4736;52.508;13.422;2022-08-03T15:42:13;2.70;;;2.50;;
9392;SDS011;4736;52.508;13.422;2022-08-03T15:45:16;2.15;;;2.05;;
9392;SDS011;4736;52.508;13.422;2022-08-03T15:48:22;3.03;;;2.83;;
9392;SDS011;4736;52.508;13.422;2022-08-03T15:51:26;2.10;;;2.10;;
9392;SDS011;4736;52.508;13.422;2022-08-03T15:54:29;2.63;;;2.53;;
9392;SDS011;4736;52.508;13.422;2022-08-03T15:57:32;2.78;;;2.58;;
9392;SDS011;4736;52.508;13.422;2022-08-03T16:00:57;3.08;;;2.88;;
9392;SDS011;4736;52.508;13.422;2022-08-03T16:04:03;2.45;;;2.35;;
9392;SDS011;4736;52.508;13.422;2022-08-03T16:07:06;3.08;;;2.58;;
9392;SDS011;4736;52.508;13.422;2022-08-03T16:10:13;2.70;;;2.60;;
9392;SDS011;4736;52.508;13.422;2022-08-03T16:13:17;2.25;;;2.15;;
9392;SDS011;4736;52.508;13.422;2022-08-03T16:16:20;2.20;;;2.20;;
9392;SDS011;4736;52.508;13.422;2022-08-03T16:19:25;2.30;;;2.25;;
9392;SDS011;4736;52.508;13.422;2022-08-03T16:22:28;2.35;;;2.25;;
9392;SDS011;4736;52.508;13.422;2022-08-03T16:25:33;2.60;;;2.50;;
9392;SDS011;4736;52.508;13.422;2022-08-03T16:28:36;3.58;;;2.60;;
9392;SDS011;4736;52.508;13.422;2022-08-03T16:31:39;2.80;;;2.63;;
9392;SDS011;4736;52.508;13.422;2022-08-03T16:34:53;4.60;;;2.88;;
9392;SDS011;4736;52.508;13.422;2022-08-03T16:37:55;2.42;;;2.33;;
9392;SDS011;4736;52.508;13.422;2022-08-03T16:40:58;2.42;;;2.22;;
9392;SDS011;4736;52.508;13.422;2022-08-03T16:44:01;2.60;;;2.60;;
9392;SDS011;4736;52.508;13.422;2022-08-03T16:47:10;2.55;;;2.45;;
9392;SDS011;4736;52.508;13.422;2022-08-03T16:50:24;2.83;;;2.58;;
9392;SDS011;4736;52.508;13.422;2022-08-03T16:53:27;2.45;;;2.35;;
9392;SDS011;4736;52.508;13.422;2022-08-03T16:56:50;2.47;;;2.40;;
9392;SDS011;4736;52.508;13.422;2022-08-03T16:59:53;2.92;;;2.70;;
9392;SDS011;4736;52.508;13.422;2022-08-03T17:02:58;2.50;;;2.50;;
9392;SDS011;4736;52.508;13.422;2022-08-03T17:06:06;2.38;;;2.35;;
9392;SDS011;4736;52.508;13.422;2022-08-03T17:09:10;2.75;;;2.55;;
9392;SDS011;4736;52.508;13.422;2022-08-03T17:12:14;3.05;;;2.95;;
9392;SDS011;4736;52.508;13.422;2022-08-03T17:15:18;2.95;;;2.75;;
9392;SDS011;4736;52.508;13.422;2022-08-03T17:18:40;3.10;;;2.90;;
9392;SDS011;4736;52.508;13.422;2022-08-03T17:21:52;2.75;;;2.75;;
9392;SDS011;4736;52.508;13.422;2022-08-03T17:25:05;3.28;;;3.17;;
9392;SDS011;4736;52.508;13.422;2022-08-03T17:28:22;3.33;;;2.97;;
9392;SDS011;4736;52.508;13.422;2022-08-03T17:31:50;3.45;;;2.90;;
9392;SDS011;4736;52.508;13.422;2022-08-03T17:34:53;3.60;;;3.40;;
9392;SDS011;4736;52.508;13.422;2022-08-03T17:37:58;3.28;;;3.15;;
9392;SDS011;4736;52.508;13.422;2022-08-03T17:41:04;3.08;;;3.00;;
9392;SDS011;4736;52.508;13.422;2022-08-03T17:44:11;3.10;;;3.10;;
9392;SDS011;4736;52.508;13.422;2022-08-03T17:47:32;3.22;;;3.15;;
9392;SDS011;4736;52.508;13.422;2022-08-03T17:50:45;3.15;;;3.15;;
9392;SDS011;4736;52.508;13.422;2022-08-03T17:53:56;3.97;;;3.63;;
9392;SDS011;4736;52.508;13.422;2022-08-03T17:57:20;3.42;;;3.33;;
9392;SDS011;4736;52.508;13.422;2022-08-03T18:00:27;3.55;;;3.30;;
9392;SDS011;4736;52.508;13.422;2022-08-03T18:04:00;3.20;;;3.10;;
9392;SDS011;4736;52.508;13.422;2022-08-03T18:07:11;3.65;;;3.45;;
9392;SDS011;4736;52.508;13.422;2022-08-03T18:10:21;3.47;;;3.28;;
9392;SDS011;4736;52.508;13.422;2022-08-03T18:13:29;4.68;;;4.47;;
9392;SDS011;4736;52.508;13.422;2022-08-03T18:16:41;5.05;;;4.85;;
9392;SDS011;4736;52.508;13.422;2022-08-03T18:19:45;4.68;;;4.45;;
9392;SDS011;4736;52.508;13.422;2022-08-03T18:23:06;4.85;;;4.53;;
9392;SDS011;4736;52.508;13.422;2022-08-03T18:26:27;5.38;;;4.13;;
9392;SDS011;4736;52.508;13.422;2022-08-03T18:29:32;4.90;;;4.47;;
9392;SDS011;4736;52.508;13.422;2022-08-03T18:32:38;4.72;;;4.43;;
9392;SDS011;4736;52.508;13.422;2022-08-03T18:35:41;4.78;;;4.57;;
9392;SDS011;4736;52.508;13.422;2022-08-03T18:38:54;3.95;;;3.85;;
9392;SDS011;4736;52.508;13.422;2022-08-03T18:42:00;4.50;;;4.40;;
9392;SDS011;4736;52.508;13.422;2022-08-03T18:45:05;5.30;;;5.10;;
9392;SDS011;4736;52.508;13.422;2022-08-03T18:48:30;6.43;;;5.30;;
9392;SDS011;4736;52.508;13.422;2022-08-03T18:51:46;5.75;;;5.45;;
9392;SDS011;4736;52.508;13.422;2022-08-03T18:54:58;6.20;;;5.65;;
9392;SDS011;4736;52.508;13.422;2022-08-03T18:58:24;6.15;;;5.60;;
9392;SDS011;4736;52.508;13.422;2022-08-03T19:01:34;6.20;;;5.80;;
9392;SDS011;4736;52.508;13.422;2022-08-03T19:05:03;5.75;;;5.25;;
9392;SDS011;4736;52.508;13.422;2022-08-03T19:08:10;6.03;;;5.82;;
9392;SDS011;4736;52.508;13.422;2022-08-03T19:11:20;5.83;;;5.53;;
9392;SDS011;4736;52.508;13.422;2022-08-03T19:14:48;6.20;;;5.72;;
9392;SDS011;4736;52.508;13.422;2022-08-03T19:17:55;6.37;;;5.87;;